sensor_id;sensor_type;location;lat;lon;timestamp;noise_LAeq;noise_LA_min;noise_LA_max;noise_LA01;noise_LA95
58303;Laerm;44109;52.398;7.024;2023-05-23T00:02:10;48.55;33.02;67.98;;
58303;Laerm;44109;52.398;7.024;2023-05-23T00:04:40;48.54;32.89;64.42;;
58303;Laerm;44109;52.398;7.024;2023-05-23T00:07:08;48.70;36.48;62.46;;
58303;Laerm;44109;52.398;7.024;2023-05-23T00:09:35;48.43;35.58;60.38;;
58303;Laerm;44109;52.398;7.024;2023-05-23T00:12:04;48.34;34.48;57.98;;
58303;Laerm;44109;52.398;7.024;2023-05-23T00:14:32;47.91;33.78;57.62;;
58303;Laerm;44109;52.398;7.024;2023-05-23T00:17:00;48.84;33.16;64.87;;
58303;Laerm;44109;52.398;7.024;2023-05-23T00:19:28;48.35;34.12;58.70;;
58303;Laerm;44109;52.398;7.024;2023-05-23T00:21:57;48.22;33.20;68.39;;
58303;Laerm;44109;52.398;7.024;2023-05-23T00:24:24;47.92;34.18;57.81;;
58303;Laerm;44109;52.398;7.024;2023-05-23T00:26:52;48.58;35.03;60.68;;
58303;Laerm;44109;52.398;7.024;2023-05-23T00:29:20;47.92;33.69;57.65;;
58303;Laerm;44109;52.398;7.024;2023-05-23T00:31:47;48.51;33.65;67.61;;
58303;Laerm;44109;52.398;7.024;2023-05-23T00:34:15;49.90;35.04;64.48;;
58303;Laerm;44109;52.398;7.024;2023-05-23T00:36:44;51.79;38.20;73.95;;
58303;Laerm;44109;52.398;7.024;2023-05-23T00:39:14;51.98;39.58;65.93;;
58303;Laerm;44109;52.398;7.024;2023-05-23T00:41:45;50.04;39.02;66.96;;
58303;Laerm;44109;52.398;7.024;2023-05-23T00:44:13;50.08;38.75;63.29;;
58303;Laerm;44109;52.398;7.024;2023-05-23T00:46:44;50.09;37.29;61.93;;
58303;Laerm;44109;52.398;7.024;2023-05-23T00:49:13;48.71;37.79;57.86;;
58303;Laerm;44109;52.398;7.024;2023-05-23T00:51:45;48.79;35.35;57.52;;
58303;Laerm;44109;52.398;7.024;2023-05-23T00:54:17;48.08;34.70;57.83;;
58303;Laerm;44109;52.398;7.024;2023-05-23T00:56:47;47.91;34.55;57.54;;
58303;Laerm;44109;52.398;7.024;2023-05-23T00:59:15;48.12;35.06;59.94;;
58303;Laerm;44109;52.398;7.024;2023-05-23T01:01:43;49.57;37.27;64.22;;
58303;Laerm;44109;52.398;7.024;2023-05-23T01:04:12;51.90;37.77;67.97;;
58303;Laerm;44109;52.398;7.024;2023-05-23T01:06:41;50.25;38.63;59.38;;
58303;Laerm;44109;52.398;7.024;2023-05-23T01:09:12;49.65;38.38;60.64;;
58303;Laerm;44109;52.398;7.024;2023-05-23T01:11:51;49.16;36.85;63.59;;
58303;Laerm;44109;52.398;7.024;2023-05-23T01:14:34;50.85;37.28;67.09;;
58303;Laerm;44109;52.398;7.024;2023-05-23T01:17:11;49.06;38.74;57.74;;
58303;Laerm;44109;52.398;7.024;2023-05-23T01:20:06;49.01;38.41;57.88;;
58303;Laerm;44109;52.398;7.024;2023-05-23T01:23:00;49.13;36.66;70.98;;
58303;Laerm;44109;52.398;7.024;2023-05-23T01:25:47;52.61;41.08;73.96;;
58303;Laerm;44109;52.398;7.024;2023-05-23T01:28:30;50.92;37.38;68.80;;
58303;Laerm;44109;52.398;7.024;2023-05-23T01:31:02;48.17;35.75;57.54;;
58303;Laerm;44109;52.398;7.024;2023-05-23T01:33:31;48.66;36.27;57.72;;
58303;Laerm;44109;52.398;7.024;2023-05-23T01:36:01;49.05;36.90;58.35;;
58303;Laerm;44109;52.398;7.024;2023-05-23T01:38:29;53.29;39.68;67.61;;
58303;Laerm;44109;52.398;7.024;2023-05-23T01:40:57;49.93;37.12;66.28;;
58303;Laerm;44109;52.398;7.024;2023-05-23T01:43:27;49.39;34.40;67.61;;
58303;Laerm;44109;52.398;7.024;2023-05-23T01:45:56;47.75;34.11;57.44;;
58303;Laerm;44109;52.398;7.024;2023-05-23T01:48:25;48.78;33.93;72.67;;
58303;Laerm;44109;52.398;7.024;2023-05-23T01:50:54;49.50;34.04;63.87;;
58303;Laerm;44109;52.398;7.024;2023-05-23T01:53:24;47.85;33.84;57.67;;
58303;Laerm;44109;52.398;7.024;2023-05-23T01:55:53;48.50;33.52;63.41;;
58303;Laerm;44109;52.398;7.024;2023-05-23T01:58:22;48.35;35.73;57.92;;
58303;Laerm;44109;52.398;7.024;2023-05-23T02:00:51;48.26;36.47;58.03;;
58303;Laerm;44109;52.398;7.024;2023-05-23T02:03:18;48.03;34.65;57.47;;
58303;Laerm;44109;52.398;7.024;2023-05-23T02:05:46;48.30;35.24;57.53;;
58303;Laerm;44109;52.398;7.024;2023-05-23T02:08:14;48.23;34.31;58.14;;
58303;Laerm;44109;52.398;7.024;2023-05-23T02:10:41;49.94;37.68;75.39;;
58303;Laerm;44109;52.398;7.024;2023-05-23T02:13:09;48.04;35.23;57.48;;
58303;Laerm;44109;52.398;7.024;2023-05-23T02:15:36;48.02;33.94;57.53;;
58303;Laerm;44109;52.398;7.024;2023-05-23T02:18:05;47.98;34.86;59.51;;
58303;Laerm;44109;52.398;7.024;2023-05-23T02:20:33;48.84;34.64;64.63;;
58303;Laerm;44109;52.398;7.024;2023-05-23T02:23:01;53.44;33.61;88.28;;
58303;Laerm;44109;52.398;7.024;2023-05-23T02:25:28;50.92;36.18;81.87;;
58303;Laerm;44109;52.398;7.024;2023-05-23T02:27:56;48.30;34.96;66.11;;
58303;Laerm;44109;52.398;7.024;2023-05-23T02:30:23;48.30;34.43;65.95;;
58303;Laerm;44109;52.398;7.024;2023-05-23T02:32:51;48.21;34.85;65.77;;
58303;Laerm;44109;52.398;7.024;2023-05-23T02:35:21;48.00;34.12;57.57;;
58303;Laerm;44109;52.398;7.024;2023-05-23T02:37:48;48.04;33.83;59.61;;
58303;Laerm;44109;52.398;7.024;2023-05-23T02:40:16;48.91;35.29;63.92;;
58303;Laerm;44109;52.398;7.024;2023-05-23T02:42:44;48.80;36.49;59.79;;
58303;Laerm;44109;52.398;7.024;2023-05-23T02:45:11;49.38;38.61;61.12;;
58303;Laerm;44109;52.398;7.024;2023-05-23T02:47:39;51.34;36.56;80.66;;
58303;Laerm;44109;52.398;7.024;2023-05-23T02:50:07;55.69;38.17;72.79;;
58303;Laerm;44109;52.398;7.024;2023-05-23T02:52:36;70.43;41.03;87.93;;
58303;Laerm;44109;52.398;7.024;2023-05-23T02:55:05;68.50;38.91;87.08;;
58303;Laerm;44109;52.398;7.024;2023-05-23T02:57:33;66.92;38.94;81.97;;
58303;Laerm;44109;52.398;7.024;2023-05-23T03:00:01;66.58;38.12;82.84;;
58303;Laerm;44109;52.398;7.024;2023-05-23T03:02:29;66.93;39.12;81.86;;
58303;Laerm;44109;52.398;7.024;2023-05-23T03:04:57;66.28;38.94;84.12;;
58303;Laerm;44109;52.398;7.024;2023-05-23T03:07:24;67.35;40.27;86.59;;
58303;Laerm;44109;52.398;7.024;2023-05-23T03:09:53;59.03;38.24;75.59;;
58303;Laerm;44109;52.398;7.024;2023-05-23T03:12:21;54.05;38.30;70.53;;
58303;Laerm;44109;52.398;7.024;2023-05-23T03:14:49;53.68;39.15;69.50;;
58303;Laerm;44109;52.398;7.024;2023-05-23T03:17:16;60.19;36.37;81.48;;
58303;Laerm;44109;52.398;7.024;2023-05-23T03:19:44;52.39;36.92;69.22;;
58303;Laerm;44109;52.398;7.024;2023-05-23T03:22:11;52.32;39.16;75.93;;
58303;Laerm;44109;52.398;7.024;2023-05-23T03:24:39;51.38;37.98;66.23;;
58303;Laerm;44109;52.398;7.024;2023-05-23T03:27:08;50.72;38.07;72.45;;
58303;Laerm;44109;52.398;7.024;2023-05-23T03:29:36;51.16;39.77;63.69;;
58303;Laerm;44109;52.398;7.024;2023-05-23T03:32:04;52.13;41.61;61.74;;
58303;Laerm;44109;52.398;7.024;2023-05-23T03:34:32;54.65;38.58;79.13;;
58303;Laerm;44109;52.398;7.024;2023-05-23T03:37:01;52.85;39.34;72.34;;
58303;Laerm;44109;52.398;7.024;2023-05-23T03:39:29;52.31;40.68;66.62;;
58303;Laerm;44109;52.398;7.024;2023-05-23T03:41:57;50.64;39.43;62.22;;
58303;Laerm;44109;52.398;7.024;2023-05-23T03:44:26;50.17;37.74;67.53;;
58303;Laerm;44109;52.398;7.024;2023-05-23T03:46:53;49.93;36.67;65.35;;
58303;Laerm;44109;52.398;7.024;2023-05-23T03:49:21;53.12;37.47;68.55;;
58303;Laerm;44109;52.398;7.024;2023-05-23T03:51:49;52.50;36.39;67.68;;
58303;Laerm;44109;52.398;7.024;2023-05-23T03:54:16;49.98;37.05;62.36;;
58303;Laerm;44109;52.398;7.024;2023-05-23T03:56:44;49.71;36.83;59.54;;
58303;Laerm;44109;52.398;7.024;2023-05-23T03:59:11;52.83;40.54;62.20;;
58303;Laerm;44109;52.398;7.024;2023-05-23T04:01:40;51.09;38.13;68.94;;
58303;Laerm;44109;52.398;7.024;2023-05-23T04:04:08;50.97;37.83;64.01;;
58303;Laerm;44109;52.398;7.024;2023-05-23T04:06:36;49.98;36.77;60.51;;
58303;Laerm;44109;52.398;7.024;2023-05-23T04:09:03;51.51;37.52;65.14;;
58303;Laerm;44109;52.398;7.024;2023-05-23T04:11:31;50.44;37.78;59.61;;
58303;Laerm;44109;52.398;7.024;2023-05-23T04:13:59;50.50;37.79;63.11;;
58303;Laerm;44109;52.398;7.024;2023-05-23T04:16:27;49.29;38.03;59.00;;
58303;Laerm;44109;52.398;7.024;2023-05-23T04:18:59;49.99;37.65;70.71;;
58303;Laerm;44109;52.398;7.024;2023-05-23T04:21:27;48.83;37.08;58.49;;
58303;Laerm;44109;52.398;7.024;2023-05-23T04:23:55;50.61;35.96;66.43;;
58303;Laerm;44109;52.398;7.024;2023-05-23T04:26:22;53.67;38.30;67.03;;
58303;Laerm;44109;52.398;7.024;2023-05-23T04:28:50;51.78;38.28;69.53;;
58303;Laerm;44109;52.398;7.024;2023-05-23T04:31:19;55.42;39.27;76.50;;
58303;Laerm;44109;52.398;7.024;2023-05-23T04:33:48;52.11;39.81;71.39;;
58303;Laerm;44109;52.398;7.024;2023-05-23T04:36:17;49.59;39.27;58.84;;
58303;Laerm;44109;52.398;7.024;2023-05-23T04:38:45;52.67;38.44;71.79;;
58303;Laerm;44109;52.398;7.024;2023-05-23T04:41:12;50.30;38.87;71.84;;
58303;Laerm;44109;52.398;7.024;2023-05-23T04:43:41;49.76;37.47;62.72;;
58303;Laerm;44109;52.398;7.024;2023-05-23T04:46:09;49.22;35.85;66.20;;
58303;Laerm;44109;52.398;7.024;2023-05-23T04:48:39;49.19;37.05;59.11;;
58303;Laerm;44109;52.398;7.024;2023-05-23T04:51:07;49.69;37.01;60.27;;
58303;Laerm;44109;52.398;7.024;2023-05-23T04:53:38;50.21;36.86;67.04;;
58303;Laerm;44109;52.398;7.024;2023-05-23T04:56:06;51.55;38.45;69.10;;
58303;Laerm;44109;52.398;7.024;2023-05-23T04:58:35;50.94;37.47;63.76;;
58303;Laerm;44109;52.398;7.024;2023-05-23T05:01:02;52.29;39.44;67.01;;
58303;Laerm;44109;52.398;7.024;2023-05-23T05:03:31;51.03;39.25;67.37;;
58303;Laerm;44109;52.398;7.024;2023-05-23T05:05:59;49.58;38.77;63.02;;
58303;Laerm;44109;52.398;7.024;2023-05-23T05:08:27;49.57;37.28;58.64;;
58303;Laerm;44109;52.398;7.024;2023-05-23T05:10:56;49.89;36.49;69.25;;
58303;Laerm;44109;52.398;7.024;2023-05-23T05:13:23;50.75;37.41;63.06;;
58303;Laerm;44109;52.398;7.024;2023-05-23T05:15:51;49.76;38.04;61.42;;
58303;Laerm;44109;52.398;7.024;2023-05-23T05:18:19;50.26;36.86;70.07;;
58303;Laerm;44109;52.398;7.024;2023-05-23T05:20:46;51.93;37.34;70.23;;
58303;Laerm;44109;52.398;7.024;2023-05-23T05:23:14;50.27;38.48;69.00;;
58303;Laerm;44109;52.398;7.024;2023-05-23T05:25:41;51.35;38.36;71.22;;
58303;Laerm;44109;52.398;7.024;2023-05-23T05:28:10;51.45;40.18;67.19;;
58303;Laerm;44109;52.398;7.024;2023-05-23T05:30:38;50.88;40.39;64.02;;
58303;Laerm;44109;52.398;7.024;2023-05-23T05:33:06;50.38;37.74;66.78;;
58303;Laerm;44109;52.398;7.024;2023-05-23T05:35:34;49.85;37.78;63.49;;
58303;Laerm;44109;52.398;7.024;2023-05-23T05:38:03;50.16;38.01;65.25;;
58303;Laerm;44109;52.398;7.024;2023-05-23T05:40:34;50.03;37.32;66.61;;
58303;Laerm;44109;52.398;7.024;2023-05-23T05:43:01;50.88;39.77;72.72;;
58303;Laerm;44109;52.398;7.024;2023-05-23T05:45:30;51.65;38.60;65.20;;
58303;Laerm;44109;52.398;7.024;2023-05-23T05:47:58;49.80;38.91;64.34;;
58303;Laerm;44109;52.398;7.024;2023-05-23T05:50:25;49.10;38.47;59.94;;
58303;Laerm;44109;52.398;7.024;2023-05-23T05:52:53;51.78;39.18;65.55;;
58303;Laerm;44109;52.398;7.024;2023-05-23T05:55:21;52.76;39.89;65.39;;
58303;Laerm;44109;52.398;7.024;2023-05-23T05:57:49;53.66;40.06;65.52;;
58303;Laerm;44109;52.398;7.024;2023-05-23T06:00:17;52.00;38.59;65.98;;
58303;Laerm;44109;52.398;7.024;2023-05-23T06:02:46;50.83;39.68;64.43;;
58303;Laerm;44109;52.398;7.024;2023-05-23T06:05:16;52.58;41.20;64.25;;
58303;Laerm;44109;52.398;7.024;2023-05-23T06:07:47;51.21;40.98;60.97;;
58303;Laerm;44109;52.398;7.024;2023-05-23T06:10:15;52.63;40.75;67.77;;
58303;Laerm;44109;52.398;7.024;2023-05-23T06:12:42;51.55;39.45;60.99;;
58303;Laerm;44109;52.398;7.024;2023-05-23T06:15:11;50.24;38.72;64.84;;
58303;Laerm;44109;52.398;7.024;2023-05-23T06:17:39;51.33;39.27;65.15;;
58303;Laerm;44109;52.398;7.024;2023-05-23T06:20:10;51.01;37.82;64.63;;
58303;Laerm;44109;52.398;7.024;2023-05-23T06:22:38;53.00;38.07;69.89;;
58303;Laerm;44109;52.398;7.024;2023-05-23T06:25:07;51.08;37.66;64.70;;
58303;Laerm;44109;52.398;7.024;2023-05-23T06:27:34;52.71;37.93;65.39;;
58303;Laerm;44109;52.398;7.024;2023-05-23T06:30:04;50.28;40.79;67.44;;
58303;Laerm;44109;52.398;7.024;2023-05-23T06:32:32;50.66;40.17;64.18;;
58303;Laerm;44109;52.398;7.024;2023-05-23T06:35:00;50.17;38.23;64.13;;
58303;Laerm;44109;52.398;7.024;2023-05-23T06:37:29;51.48;41.44;63.71;;
58303;Laerm;44109;52.398;7.024;2023-05-23T06:39:56;49.93;39.17;61.74;;
58303;Laerm;44109;52.398;7.024;2023-05-23T06:42:24;50.06;40.17;64.01;;
58303;Laerm;44109;52.398;7.024;2023-05-23T06:44:52;52.38;40.01;63.95;;
58303;Laerm;44109;52.398;7.024;2023-05-23T06:47:19;51.67;40.53;69.29;;
58303;Laerm;44109;52.398;7.024;2023-05-23T06:49:48;50.60;38.61;63.66;;
58303;Laerm;44109;52.398;7.024;2023-05-23T06:52:15;53.96;40.24;66.21;;
58303;Laerm;44109;52.398;7.024;2023-05-23T06:54:44;51.39;39.12;63.24;;
58303;Laerm;44109;52.398;7.024;2023-05-23T06:57:12;55.09;39.94;86.49;;
58303;Laerm;44109;52.398;7.024;2023-05-23T06:59:39;52.70;41.06;70.81;;
58303;Laerm;44109;52.398;7.024;2023-05-23T07:02:07;50.61;38.23;64.90;;
58303;Laerm;44109;52.398;7.024;2023-05-23T07:04:34;50.14;37.02;66.17;;
58303;Laerm;44109;52.398;7.024;2023-05-23T07:07:02;49.76;36.51;63.26;;
58303;Laerm;44109;52.398;7.024;2023-05-23T07:09:30;49.71;37.20;61.06;;
58303;Laerm;44109;52.398;7.024;2023-05-23T07:11:59;52.80;38.86;68.13;;
58303;Laerm;44109;52.398;7.024;2023-05-23T07:14:27;53.10;39.32;66.87;;
58303;Laerm;44109;52.398;7.024;2023-05-23T07:16:54;52.46;38.55;66.24;;
58303;Laerm;44109;52.398;7.024;2023-05-23T07:19:22;51.00;38.62;63.63;;
58303;Laerm;44109;52.398;7.024;2023-05-23T07:21:49;51.75;39.48;67.83;;
58303;Laerm;44109;52.398;7.024;2023-05-23T07:24:17;51.85;39.15;65.21;;
58303;Laerm;44109;52.398;7.024;2023-05-23T07:26:44;50.84;39.58;61.36;;
58303;Laerm;44109;52.398;7.024;2023-05-23T07:29:14;54.63;42.52;69.93;;
58303;Laerm;44109;52.398;7.024;2023-05-23T07:31:41;52.23;42.85;62.27;;
58303;Laerm;44109;52.398;7.024;2023-05-23T07:34:09;51.02;39.56;59.67;;
58303;Laerm;44109;52.398;7.024;2023-05-23T07:36:36;53.62;43.04;74.78;;
58303;Laerm;44109;52.398;7.024;2023-05-23T07:39:06;52.95;42.26;66.83;;
58303;Laerm;44109;52.398;7.024;2023-05-23T07:41:33;52.54;41.35;65.83;;
58303;Laerm;44109;52.398;7.024;2023-05-23T07:44:01;51.20;39.38;67.59;;
58303;Laerm;44109;52.398;7.024;2023-05-23T07:46:30;51.30;39.77;66.26;;
58303;Laerm;44109;52.398;7.024;2023-05-23T07:48:57;51.00;39.79;64.70;;
58303;Laerm;44109;52.398;7.024;2023-05-23T07:51:25;50.15;40.97;58.63;;
58303;Laerm;44109;52.398;7.024;2023-05-23T07:53:52;50.15;39.22;61.74;;
58303;Laerm;44109;52.398;7.024;2023-05-23T07:56:20;51.27;39.54;65.02;;
58303;Laerm;44109;52.398;7.024;2023-05-23T07:58:48;52.65;40.69;66.65;;
58303;Laerm;44109;52.398;7.024;2023-05-23T08:01:15;54.55;39.00;71.01;;
58303;Laerm;44109;52.398;7.024;2023-05-23T08:03:45;52.79;37.26;63.46;;
58303;Laerm;44109;52.398;7.024;2023-05-23T08:06:12;52.14;39.88;62.36;;
58303;Laerm;44109;52.398;7.024;2023-05-23T08:08:40;51.76;41.55;65.36;;
58303;Laerm;44109;52.398;7.024;2023-05-23T08:11:09;51.42;38.30;63.05;;
58303;Laerm;44109;52.398;7.024;2023-05-23T08:13:36;50.72;37.65;64.62;;
58303;Laerm;44109;52.398;7.024;2023-05-23T08:16:04;49.37;37.47;61.49;;
58303;Laerm;44109;52.398;7.024;2023-05-23T08:18:32;51.31;37.39;63.58;;
58303;Laerm;44109;52.398;7.024;2023-05-23T08:21:01;51.79;37.45;66.88;;
58303;Laerm;44109;52.398;7.024;2023-05-23T08:23:29;53.67;39.76;67.48;;
58303;Laerm;44109;52.398;7.024;2023-05-23T08:25:57;50.69;38.62;60.53;;
58303;Laerm;44109;52.398;7.024;2023-05-23T08:28:24;51.30;39.42;65.85;;
58303;Laerm;44109;52.398;7.024;2023-05-23T08:30:52;53.51;42.60;75.87;;
58303;Laerm;44109;52.398;7.024;2023-05-23T08:33:22;54.51;40.64;72.82;;
58303;Laerm;44109;52.398;7.024;2023-05-23T08:35:49;53.45;42.81;67.02;;
58303;Laerm;44109;52.398;7.024;2023-05-23T08:38:18;51.04;39.55;63.67;;
58303;Laerm;44109;52.398;7.024;2023-05-23T08:40:50;50.60;38.79;67.12;;
58303;Laerm;44109;52.398;7.024;2023-05-23T08:43:18;52.37;41.61;63.28;;
58303;Laerm;44109;52.398;7.024;2023-05-23T08:45:50;53.69;40.66;72.26;;
58303;Laerm;44109;52.398;7.024;2023-05-23T08:48:19;53.44;38.84;69.12;;
58303;Laerm;44109;52.398;7.024;2023-05-23T08:50:52;54.63;39.11;75.24;;
58303;Laerm;44109;52.398;7.024;2023-05-23T08:53:24;54.99;41.23;84.28;;
58303;Laerm;44109;52.398;7.024;2023-05-23T08:55:53;54.22;40.13;74.92;;
58303;Laerm;44109;52.398;7.024;2023-05-23T08:58:24;51.96;40.06;64.62;;
58303;Laerm;44109;52.398;7.024;2023-05-23T09:00:54;51.19;40.20;65.55;;
58303;Laerm;44109;52.398;7.024;2023-05-23T09:03:23;58.77;39.63;82.43;;
58303;Laerm;44109;52.398;7.024;2023-05-23T09:05:53;52.04;40.97;69.71;;
58303;Laerm;44109;52.398;7.024;2023-05-23T09:08:22;53.21;39.52;75.47;;
58303;Laerm;44109;52.398;7.024;2023-05-23T09:10:51;53.43;40.80;71.22;;
58303;Laerm;44109;52.398;7.024;2023-05-23T09:13:19;53.13;42.29;65.92;;
58303;Laerm;44109;52.398;7.024;2023-05-23T09:16:00;51.88;38.92;65.25;;
58303;Laerm;44109;52.398;7.024;2023-05-23T09:18:33;53.82;39.70;79.93;;
58303;Laerm;44109;52.398;7.024;2023-05-23T09:21:02;51.57;40.09;70.22;;
58303;Laerm;44109;52.398;7.024;2023-05-23T09:23:33;60.41;40.07;85.36;;
58303;Laerm;44109;52.398;7.024;2023-05-23T09:26:02;52.01;42.66;68.83;;
58303;Laerm;44109;52.398;7.024;2023-05-23T09:28:32;52.88;42.37;70.20;;
58303;Laerm;44109;52.398;7.024;2023-05-23T09:31:01;51.74;40.35;62.41;;
58303;Laerm;44109;52.398;7.024;2023-05-23T09:33:41;50.61;40.44;63.07;;
58303;Laerm;44109;52.398;7.024;2023-05-23T09:36:09;50.75;40.71;61.72;;
58303;Laerm;44109;52.398;7.024;2023-05-23T09:38:39;52.59;42.71;73.14;;
58303;Laerm;44109;52.398;7.024;2023-05-23T09:41:08;54.90;43.62;74.54;;
58303;Laerm;44109;52.398;7.024;2023-05-23T09:43:38;53.45;42.26;73.92;;
58303;Laerm;44109;52.398;7.024;2023-05-23T09:46:07;52.11;41.10;65.05;;
58303;Laerm;44109;52.398;7.024;2023-05-23T09:48:36;53.01;41.91;73.26;;
58303;Laerm;44109;52.398;7.024;2023-05-23T09:51:04;51.75;42.96;68.29;;
58303;Laerm;44109;52.398;7.024;2023-05-23T09:53:32;50.56;38.62;62.63;;
58303;Laerm;44109;52.398;7.024;2023-05-23T09:56:03;52.12;38.65;68.58;;
58303;Laerm;44109;52.398;7.024;2023-05-23T09:58:32;52.26;39.96;74.11;;
58303;Laerm;44109;52.398;7.024;2023-05-23T10:01:02;51.32;39.26;66.78;;
58303;Laerm;44109;52.398;7.024;2023-05-23T10:03:39;49.43;38.84;63.02;;
58303;Laerm;44109;52.398;7.024;2023-05-23T10:06:16;50.33;40.19;65.94;;
58303;Laerm;44109;52.398;7.024;2023-05-23T10:08:51;51.70;39.54;65.84;;
58303;Laerm;44109;52.398;7.024;2023-05-23T10:14:49;52.71;40.53;65.99;;
58303;Laerm;44109;52.398;7.024;2023-05-23T10:17:25;53.20;39.66;66.52;;
58303;Laerm;44109;52.398;7.024;2023-05-23T10:20:02;52.67;39.33;67.04;;
58303;Laerm;44109;52.398;7.024;2023-05-23T10:22:35;51.48;39.57;64.29;;
58303;Laerm;44109;52.398;7.024;2023-05-23T10:25:03;52.25;37.99;67.40;;
58303;Laerm;44109;52.398;7.024;2023-05-23T10:27:32;52.72;40.99;67.64;;
58303;Laerm;44109;52.398;7.024;2023-05-23T10:30:02;54.37;44.66;67.82;;
58303;Laerm;44109;52.398;7.024;2023-05-23T10:32:31;54.83;44.96;68.03;;
58303;Laerm;44109;52.398;7.024;2023-05-23T10:35:11;51.89;40.70;73.32;;
58303;Laerm;44109;52.398;7.024;2023-05-23T10:37:51;52.31;40.94;64.32;;
58303;Laerm;44109;52.398;7.024;2023-05-23T10:40:33;52.43;40.36;67.30;;
58303;Laerm;44109;52.398;7.024;2023-05-23T10:43:19;54.69;41.45;70.09;;
58303;Laerm;44109;52.398;7.024;2023-05-23T10:45:52;53.30;40.33;70.76;;
58303;Laerm;44109;52.398;7.024;2023-05-23T10:48:21;53.37;42.28;66.83;;
58303;Laerm;44109;52.398;7.024;2023-05-23T10:51:04;56.26;40.31;66.71;;
58303;Laerm;44109;52.398;7.024;2023-05-23T10:53:37;53.94;39.79;68.71;;
58303;Laerm;44109;52.398;7.024;2023-05-23T10:56:06;54.37;39.78;67.89;;
58303;Laerm;44109;52.398;7.024;2023-05-23T10:58:36;52.91;38.88;73.24;;
58303;Laerm;44109;52.398;7.024;2023-05-23T11:01:08;53.71;39.70;66.60;;
58303;Laerm;44109;52.398;7.024;2023-05-23T11:03:48;51.54;39.91;64.18;;
58303;Laerm;44109;52.398;7.024;2023-05-23T11:06:29;56.02;41.12;77.65;;
58303;Laerm;44109;52.398;7.024;2023-05-23T11:09:03;51.50;40.18;63.68;;
58303;Laerm;44109;52.398;7.024;2023-05-23T11:11:59;51.60;41.97;66.52;;
58303;Laerm;44109;52.398;7.024;2023-05-23T11:14:53;52.10;41.76;67.32;;
58303;Laerm;44109;52.398;7.024;2023-05-23T11:17:32;51.35;40.86;69.49;;
58303;Laerm;44109;52.398;7.024;2023-05-23T11:20:03;53.98;41.98;68.64;;
58303;Laerm;44109;52.398;7.024;2023-05-23T11:22:33;52.96;41.42;67.42;;
58303;Laerm;44109;52.398;7.024;2023-05-23T11:25:06;52.95;40.81;63.97;;
58303;Laerm;44109;52.398;7.024;2023-05-23T11:27:37;54.13;41.40;69.67;;
58303;Laerm;44109;52.398;7.024;2023-05-23T11:30:08;55.48;46.11;74.65;;
58303;Laerm;44109;52.398;7.024;2023-05-23T11:32:40;53.60;44.22;66.31;;
58303;Laerm;44109;52.398;7.024;2023-05-23T11:35:10;54.18;43.16;64.63;;
58303;Laerm;44109;52.398;7.024;2023-05-23T11:37:38;53.35;42.38;66.02;;
58303;Laerm;44109;52.398;7.024;2023-05-23T11:40:27;54.21;41.79;74.46;;
58303;Laerm;44109;52.398;7.024;2023-05-23T11:42:55;53.85;44.94;71.48;;
58303;Laerm;44109;52.398;7.024;2023-05-23T11:45:24;51.08;39.70;61.26;;
58303;Laerm;44109;52.398;7.024;2023-05-23T11:47:54;52.21;40.15;68.92;;
58303;Laerm;44109;52.398;7.024;2023-05-23T11:50:21;51.67;40.72;62.96;;
58303;Laerm;44109;52.398;7.024;2023-05-23T11:52:50;51.56;39.24;66.70;;
58303;Laerm;44109;52.398;7.024;2023-05-23T11:55:19;51.77;38.25;66.39;;
58303;Laerm;44109;52.398;7.024;2023-05-23T11:57:47;51.63;39.46;67.58;;
58303;Laerm;44109;52.398;7.024;2023-05-23T12:00:16;49.81;38.36;59.49;;
58303;Laerm;44109;52.398;7.024;2023-05-23T12:02:45;50.21;39.90;60.24;;
58303;Laerm;44109;52.398;7.024;2023-05-23T12:05:15;51.43;39.07;65.92;;
58303;Laerm;44109;52.398;7.024;2023-05-23T12:07:45;50.28;39.73;66.42;;
58303;Laerm;44109;52.398;7.024;2023-05-23T12:10:14;51.23;38.93;64.98;;
58303;Laerm;44109;52.398;7.024;2023-05-23T12:12:44;51.45;38.33;64.59;;
58303;Laerm;44109;52.398;7.024;2023-05-23T12:15:12;50.77;39.09;62.18;;
58303;Laerm;44109;52.398;7.024;2023-05-23T12:17:44;51.13;39.42;64.21;;
58303;Laerm;44109;52.398;7.024;2023-05-23T12:20:12;51.27;39.58;67.82;;
58303;Laerm;44109;52.398;7.024;2023-05-23T12:22:42;51.12;36.43;66.62;;
58303;Laerm;44109;52.398;7.024;2023-05-23T12:25:10;49.71;38.07;65.42;;
58303;Laerm;44109;52.398;7.024;2023-05-23T12:27:40;50.87;39.50;65.92;;
58303;Laerm;44109;52.398;7.024;2023-05-23T12:30:12;51.90;41.26;66.73;;
58303;Laerm;44109;52.398;7.024;2023-05-23T12:32:41;53.48;40.66;73.55;;
58303;Laerm;44109;52.398;7.024;2023-05-23T12:35:11;52.01;39.18;66.55;;
58303;Laerm;44109;52.398;7.024;2023-05-23T12:37:42;53.02;38.04;67.88;;
58303;Laerm;44109;52.398;7.024;2023-05-23T12:40:15;55.00;43.54;68.42;;
58303;Laerm;44109;52.398;7.024;2023-05-23T12:42:55;50.46;38.40;64.08;;
58303;Laerm;44109;52.398;7.024;2023-05-23T12:45:30;53.20;39.84;66.92;;
58303;Laerm;44109;52.398;7.024;2023-05-23T12:47:58;52.53;39.54;68.02;;
58303;Laerm;44109;52.398;7.024;2023-05-23T12:50:27;53.81;40.48;68.75;;
58303;Laerm;44109;52.398;7.024;2023-05-23T12:52:57;52.37;39.42;68.28;;
58303;Laerm;44109;52.398;7.024;2023-05-23T12:55:24;53.66;40.60;69.01;;
58303;Laerm;44109;52.398;7.024;2023-05-23T12:57:53;54.83;39.12;67.67;;
58303;Laerm;44109;52.398;7.024;2023-05-23T13:00:21;57.39;40.42;78.02;;
58303;Laerm;44109;52.398;7.024;2023-05-23T13:02:49;53.63;40.30;67.43;;
58303;Laerm;44109;52.398;7.024;2023-05-23T13:05:17;53.00;39.70;68.38;;
58303;Laerm;44109;52.398;7.024;2023-05-23T13:07:46;51.93;39.34;64.37;;
58303;Laerm;44109;52.398;7.024;2023-05-23T13:10:15;54.56;40.88;70.02;;
58303;Laerm;44109;52.398;7.024;2023-05-23T13:12:43;53.90;40.89;70.51;;
58303;Laerm;44109;52.398;7.024;2023-05-23T13:15:11;51.59;39.22;61.23;;
58303;Laerm;44109;52.398;7.024;2023-05-23T13:17:39;53.75;38.49;77.99;;
58303;Laerm;44109;52.398;7.024;2023-05-23T13:20:09;54.02;38.84;71.61;;
58303;Laerm;44109;52.398;7.024;2023-05-23T13:22:37;50.75;38.94;61.78;;
58303;Laerm;44109;52.398;7.024;2023-05-23T13:25:07;54.90;42.37;76.53;;
58303;Laerm;44109;52.398;7.024;2023-05-23T13:27:36;51.77;39.63;63.61;;
58303;Laerm;44109;52.398;7.024;2023-05-23T13:30:08;51.61;38.56;64.13;;
58303;Laerm;44109;52.398;7.024;2023-05-23T13:32:36;53.26;41.48;64.24;;
58303;Laerm;44109;52.398;7.024;2023-05-23T13:35:05;51.96;38.04;67.46;;
58303;Laerm;44109;52.398;7.024;2023-05-23T13:37:36;53.68;39.20;76.78;;
58303;Laerm;44109;52.398;7.024;2023-05-23T13:40:05;53.02;39.36;69.70;;
58303;Laerm;44109;52.398;7.024;2023-05-23T13:42:35;56.20;43.51;73.13;;
58303;Laerm;44109;52.398;7.024;2023-05-23T13:45:05;52.24;40.73;64.60;;
58303;Laerm;44109;52.398;7.024;2023-05-23T13:47:33;53.09;42.00;68.38;;
58303;Laerm;44109;52.398;7.024;2023-05-23T13:50:01;52.34;41.37;66.41;;
58303;Laerm;44109;52.398;7.024;2023-05-23T13:52:29;54.27;42.06;68.92;;
58303;Laerm;44109;52.398;7.024;2023-05-23T13:54:57;54.18;40.08;72.04;;
58303;Laerm;44109;52.398;7.024;2023-05-23T13:57:26;50.93;39.86;60.10;;
58303;Laerm;44109;52.398;7.024;2023-05-23T13:59:56;52.03;43.27;61.25;;
58303;Laerm;44109;52.398;7.024;2023-05-23T14:02:24;52.06;40.78;68.13;;